Time;durP1;ratioP1;P1;durP2;ratioP2;P2;SDS_P1;SDS_P2;PMS_P1;PMS_P2;Temp;Humidity;BMP_temperature;BMP_pressure;BME280_temperature;BME280_humidity;BME280_pressure;Samples;Min_cycle;Max_cycle;Signal;HPM_P1;HPM_P2
2022/12/16 00:02:23;;;;;;;34.55;26.33;;;;;;;1.23;83.31;100406.39;1746784;80;21904;-77
2022/12/16 00:04:50;;;;;;;33.08;25.52;;;;;;;1.26;83.30;100414.09;1704461;82;21088;-77
2022/12/16 00:07:17;;;;;;;33.35;24.18;;;;;;;1.28;83.28;100420.08;1739496;80;21046;-76
2022/12/16 00:09:44;;;;;;;35.08;26.23;;;;;;;1.30;83.27;100431.27;1714100;82;20982;-77
2022/12/16 00:12:11;;;;;;;35.58;25.55;;;;;;;1.31;83.24;100435.56;1742731;80;21021;-77
2022/12/16 00:14:38;;;;;;;31.97;24.55;;;;;;;1.32;83.23;100435.95;1752372;80;22556;-78
2022/12/16 00:17:04;;;;;;;32.53;24.87;;;;;;;1.32;83.19;100439.01;1721462;82;21432;-80
2022/12/16 00:19:31;;;;;;;32.63;25.00;;;;;;;1.32;83.12;100443.75;1750042;80;20973;-77
2022/12/16 00:21:58;;;;;;;32.73;24.57;;;;;;;1.32;83.10;100447.66;1737665;80;21396;-78
2022/12/16 00:24:24;;;;;;;36.42;25.80;;;;;;;1.32;83.06;100448.96;1751611;81;21504;-77
2022/12/16 00:26:51;;;;;;;34.95;26.48;;;;;;;1.31;83.05;100449.02;1738478;82;21913;-76
2022/12/16 00:29:18;;;;;;;31.00;23.83;;;;;;;1.32;83.06;100454.63;1744159;82;20920;-77
2022/12/16 00:31:46;;;;;;;30.43;24.75;;;;;;;1.32;83.05;100459.37;1739294;81;21379;-77
2022/12/16 00:34:14;;;;;;;35.03;26.27;;;;;;;1.32;83.04;100457.22;1729313;80;20945;-76
2022/12/16 00:36:42;;;;;;;33.53;25.32;;;;;;;1.33;83.02;100468.02;1708242;84;20962;-77
2022/12/16 00:39:09;;;;;;;36.65;26.33;;;;;;;1.32;83.00;100478.88;1758489;80;21900;-79
2022/12/16 00:41:36;;;;;;;38.33;26.55;;;;;;;1.32;82.97;100479.34;1748391;80;21475;-76
2022/12/16 00:44:03;;;;;;;34.23;25.82;;;;;;;1.32;83.00;100483.24;1762184;80;21364;-77
2022/12/16 00:46:29;;;;;;;36.55;27.25;;;;;;;1.30;82.99;100480.70;1752336;80;21086;-76
2022/12/16 00:48:56;;;;;;;37.13;27.87;;;;;;;1.30;82.97;100483.77;1751803;80;21069;-77
2022/12/16 00:51:23;;;;;;;36.58;27.90;;;;;;;1.30;82.98;100487.67;1754068;80;22324;-77
2022/12/16 00:53:49;;;;;;;36.10;28.32;;;;;;;1.30;82.95;100477.26;1764491;80;21020;-76
2022/12/16 00:56:19;;;;;;;39.38;30.40;;;;;;;1.31;82.90;100478.50;1739802;80;21018;-76
2022/12/16 00:58:46;;;;;;;40.88;31.33;;;;;;;1.31;82.86;100480.25;1767941;80;20996;-76
2022/12/16 01:01:13;;;;;;;41.92;31.33;;;;;;;1.31;82.83;100482.40;1763240;80;20991;-77
2022/12/16 01:03:39;;;;;;;41.77;30.27;;;;;;;1.32;82.80;100485.84;1749113;80;21933;-77
2022/12/16 01:06:11;;;;;;;42.80;31.12;;;;;;;1.32;82.81;100485.84;1750525;81;20993;-77
2022/12/16 01:08:38;;;;;;;39.78;30.00;;;;;;;1.33;82.79;100495.34;1775512;80;21535;-77
2022/12/16 01:11:05;;;;;;;41.48;31.02;;;;;;;1.32;82.78;100503.61;1756039;80;21392;-77
2022/12/16 01:13:32;;;;;;;38.67;30.00;;;;;;;1.32;82.74;100501.45;1779990;80;20981;-79
2022/12/16 01:16:00;;;;;;;40.43;30.30;;;;;;;1.32;82.74;100501.45;1750304;80;21892;-77
2022/12/16 01:18:26;;;;;;;41.83;30.02;;;;;;;1.31;82.71;100499.31;1741992;80;21033;-76
2022/12/16 01:20:53;;;;;;;40.70;30.20;;;;;;;1.31;82.66;100504.97;1752351;81;21071;-77
2022/12/16 01:23:19;;;;;;;41.25;31.00;;;;;;;1.28;82.68;100503.34;1746656;80;21025;-76
2022/12/16 01:25:51;;;;;;;42.40;31.27;;;;;;;1.26;82.65;100507.77;1728112;82;20938;-76
2022/12/16 01:28:17;;;;;;;36.98;28.10;;;;;;;1.27;82.71;100513.81;1752284;82;22606;-77
2022/12/16 01:30:44;;;;;;;38.17;29.27;;;;;;;1.27;82.72;100501.66;1751826;82;21493;-76
2022/12/16 01:33:11;;;;;;;40.23;30.20;;;;;;;1.29;82.70;100483.38;1733097;81;20996;-76
2022/12/16 01:35:38;;;;;;;40.08;29.87;;;;;;;1.30;82.73;100465.55;1751692;81;21033;-76
2022/12/16 01:38:05;;;;;;;47.38;32.48;;;;;;;1.31;82.73;100469.39;1747977;80;21001;-76
2022/12/16 01:40:32;;;;;;;52.65;34.43;;;;;;;1.32;82.70;100473.68;1751895;81;22013;-76
2022/12/16 01:42:58;;;;;;;43.68;30.68;;;;;;;1.34;82.74;100490.08;1750148;81;21049;-76
2022/12/16 01:45:33;;;;;;;44.40;31.23;;;;;;;1.34;82.70;100493.12;1743367;82;21003;-76
2022/12/16 01:48:20;;;;;;;42.83;30.48;;;;;;;1.34;82.68;100478.81;1743686;80;21013;-76
2022/12/16 01:50:46;;;;;;;36.83;27.62;;;;;;;1.34;82.68;100481.42;1663623;84;20973;-75
2022/12/16 01:53:13;;;;;;;38.88;28.35;;;;;;;1.33;82.63;100477.13;1744168;80;21979;-76
2022/12/16 01:55:46;;;;;;;37.95;29.12;;;;;;;1.32;82.65;100470.23;1755704;80;21186;-78
2022/12/16 01:58:19;;;;;;;37.10;27.82;;;;;;;1.33;82.71;100470.63;1739776;82;20997;-76
2022/12/16 02:00:46;;;;;;;38.10;27.37;;;;;;;1.34;82.65;100484.02;1735921;80;21161;-76
2022/12/16 02:03:13;;;;;;;34.60;27.02;;;;;;;1.32;82.59;100485.84;1739345;80;21461;-76
2022/12/16 02:05:40;;;;;;;37.53;26.52;;;;;;;1.31;82.62;100485.45;1742143;80;21795;-77
2022/12/16 02:08:13;;;;;;;36.08;27.45;;;;;;;1.31;82.60;100481.09;1750582;80;21076;-76
2022/12/16 02:10:48;;;;;;;36.65;27.55;;;;;;;1.28;82.57;100487.73;1757664;80;21447;-77
2022/12/16 02:14:02;;;;;;;36.77;27.90;;;;;;;1.29;82.66;100489.88;1720912;82;21438;-76
2022/12/16 02:16:56;;;;;;;36.80;28.05;;;;;;;1.30;82.66;100481.16;1745428;80;21080;-76
2022/12/16 02:19:47;;;;;;;38.67;28.38;;;;;;;1.31;82.68;100485.00;1742375;82;21647;-75
2022/12/16 02:22:42;;;;;;;37.28;28.00;;;;;;;1.31;82.65;100482.40;1716980;82;20956;-75
2022/12/16 02:25:50;;;;;;;37.23;27.95;;;;;;;1.31;82.67;100481.55;1747457;81;21119;-76
2022/12/16 02:29:02;;;;;;;37.80;28.05;;;;;;;1.32;82.72;100486.69;1733038;81;20945;-76
2022/12/16 02:31:50;;;;;;;36.45;27.10;;;;;;;1.32;82.69;100485.39;1741741;81;21474;-76
2022/12/16 02:34:25;;;;;;;35.83;27.42;;;;;;;1.32;82.72;100480.19;1718102;80;21957;-76
2022/12/16 02:37:30;;;;;;;36.90;27.10;;;;;;;1.33;82.71;100477.13;1734601;80;21437;-76
2022/12/16 02:40:03;;;;;;;37.98;27.85;;;;;;;1.33;82.74;100477.97;1721803;81;20986;-76
2022/12/16 02:42:43;;;;;;;36.93;27.13;;;;;;;1.34;82.74;100479.66;1743064;82;21016;-76
2022/12/16 02:45:15;;;;;;;37.53;28.25;;;;;;;1.36;82.74;100496.55;1741415;80;21005;-76
2022/12/16 02:47:42;;;;;;;38.73;28.47;;;;;;;1.36;82.70;100497.39;1742678;80;21933;-76
2022/12/16 02:50:25;;;;;;;40.35;29.25;;;;;;;1.36;82.69;100499.15;1734791;82;21004;-76
2022/12/16 02:52:53;;;;;;;40.48;29.12;;;;;;;1.37;82.69;100496.94;1725033;80;20973;-76
2022/12/16 02:55:19;;;;;;;40.88;30.02;;;;;;;1.36;82.71;100494.78;1744093;80;21498;-76
2022/12/16 02:58:03;;;;;;;38.13;28.00;;;;;;;1.39;82.74;100497.72;1733638;81;21417;-77
2022/12/16 03:00:54;;;;;;;35.75;26.33;;;;;;;1.40;82.71;100495.05;1713748;82;22851;-77
2022/12/16 03:03:32;;;;;;;36.17;27.45;;;;;;;1.41;82.65;100507.60;1730644;81;21008;-76
2022/12/16 03:05:58;;;;;;;34.43;27.07;;;;;;;1.41;82.69;100516.71;1750493;80;20989;-76
2022/12/16 03:08:30;;;;;;;35.60;27.77;;;;;;;1.41;82.68;100524.06;1744366;82;20945;-76
2022/12/16 03:10:59;;;;;;;36.55;27.13;;;;;;;1.41;82.63;100525.37;1742926;82;21028;-76
2022/12/16 03:13:27;;;;;;;35.50;26.40;;;;;;;1.43;82.60;100529.20;1723124;81;21857;-77
2022/12/16 03:15:55;;;;;;;36.17;26.93;;;;;;;1.43;82.49;100525.30;1743790;80;21365;-76
2022/12/16 03:18:21;;;;;;;33.88;26.17;;;;;;;1.41;82.48;100533.62;1744197;82;21028;-76
2022/12/16 03:21:00;;;;;;;34.65;26.42;;;;;;;1.42;82.53;100528.81;1735816;82;21042;-77
2022/12/16 03:23:34;;;;;;;36.13;26.52;;;;;;;1.42;82.49;100532.72;1757615;80;21540;-76
2022/12/16 03:26:08;;;;;;;34.25;26.15;;;;;;;1.39;82.42;100525.89;1726187;80;22523;-76
2022/12/16 03:29:07;;;;;;;;;;;;;;;1.39;82.41;100525.04;1742354;80;20974;-76
2022/12/16 03:31:53;;;;;;;36.80;25.72;;;;;;;1.39;82.45;100527.19;1739035;82;20182;-76
2022/12/16 03:34:51;;;;;;;37.25;27.07;;;;;;;1.38;82.48;100529.86;1740801;82;20993;-76
2022/12/16 03:37:19;;;;;;;34.30;26.65;;;;;;;1.39;82.47;100529.79;1748323;81;21084;-76
2022/12/16 03:39:48;;;;;;;37.08;27.25;;;;;;;1.39;82.48;100522.44;1741208;80;22033;-76
2022/12/16 03:42:15;;;;;;;36.15;27.73;;;;;;;1.39;82.50;100528.48;1710509;82;21021;-77
2022/12/16 03:44:45;;;;;;;34.38;25.02;;;;;;;1.40;82.52;100521.07;1741768;80;20955;-76
2022/12/16 03:47:12;;;;;;;35.98;26.93;;;;;;;1.41;82.49;100518.86;1763144;80;20988;-76
2022/12/16 03:49:38;;;;;;;35.78;27.45;;;;;;;1.38;82.41;100517.69;1752286;82;21484;-76
2022/12/16 03:52:06;;;;;;;35.40;27.75;;;;;;;1.39;82.43;100517.23;1750610;80;21893;-77
2022/12/16 03:54:33;;;;;;;35.98;26.62;;;;;;;1.39;82.43;100510.73;1734519;81;21112;-83
2022/12/16 03:57:00;;;;;;;35.83;27.20;;;;;;;1.40;82.42;100502.01;1747355;80;21469;-76
2022/12/16 03:59:26;;;;;;;35.28;26.42;;;;;;;1.42;82.47;100497.58;1754918;81;21409;-76
2022/12/16 04:01:53;;;;;;;34.78;25.72;;;;;;;1.43;82.50;100501.87;1732766;82;21351;-76
2022/12/16 04:04:19;;;;;;;32.58;25.52;;;;;;;1.46;82.51;100500.93;1740258;80;21832;-76
2022/12/16 04:07:18;;;;;;;30.48;24.25;;;;;;;1.49;82.50;100504.25;1752131;82;20962;-76
2022/12/16 04:09:15;;;;;;;33.73;24.63;;;;;;;1.49;82.45;100499.04;1751660;80;21468;-76
2022/12/16 04:25:31;;;;;;;36.42;26.77;;;;;;;1.43;82.36;100517.49;1740265;80;21055;-75
2022/12/16 04:27:58;;;;;;;36.90;26.70;;;;;;;1.42;82.34;100522.30;1740983;80;21564;-74
2022/12/16 04:30:26;;;;;;;35.17;26.33;;;;;;;1.41;82.36;100524.52;1769053;80;21807;-77
